This is the latest recevied weather packets stored in our database for station/object OK2ZI. If no packets are shown the sender has not sent any weather packets the latest 10 day(s).
| Time | Temp. | Humidity | Pressure | Rain* | Wind** | Luminosity | Snow |
|---|---|---|---|---|---|---|---|
| 1778066412 | 21.67° C | 44% | 1005 hPa | 0 mm | - | - | - |
| 1778062812 | 22.78° C | 44% | 1005 hPa | 0 mm | - | - | - |
| 1778062449 | 22.22° C | 46% | 1005 hPa | 0 mm | - | - | - |
| 1778061127 | 22.22° C | 47% | 1005 hPa | 0 mm | - | - | - |
| 1778060887 | 22.22° C | 44% | 1005 hPa | 0 mm | - | - | - |
| 1778059087 | 20.56° C | 51% | 1005 hPa | 0 mm | - | - | - |
| 1778058847 | 20.56° C | 52% | 1005 hPa | 0 mm | - | - | - |
| 1778058032 | 20.56° C | 53% | 1006 hPa | 0 mm | - | - | - |
| 1778057528 | 21.11° C | 51% | 1005 hPa | 0 mm | - | - | - |
| 1778053567 | 18.33° C | 61% | 1006 hPa | 0 mm | - | - | - |
| 1778053209 | 18.33° C | 61% | 1006 hPa | 0 mm | - | - | - |
| 1778051887 | 17.78° C | 64% | 1006 hPa | 0 mm | - | - | - |
| 1778049727 | 17.22° C | 66% | 1006 hPa | 0 mm | - | - | - |
| 1778049367 | 16.67° C | 68% | 1006 hPa | 0 mm | - | - | - |
| 1778049127 | 16.67° C | 68% | 1006 hPa | 0 mm | - | - | - |
| 1778048887 | 16.11° C | 72% | 1006 hPa | 0 mm | - | - | - |
| 1778047811 | 15.56° C | 73% | 1006 hPa | 0 mm | - | - | - |
| 1778046485 | 15° C | 76% | 1006 hPa | 0 mm | - | - | - |
| 1778045647 | 14.44° C | 80% | 1006 hPa | 0 mm | - | - | - |
| 1778044811 | 13.89° C | 83% | 1006 hPa | 0 mm | - | - | - |
| 1778044327 | 12.78° C | 83% | 1006 hPa | 0 mm | - | - | - |
| 1778043847 | 12.22° C | 86% | 1005 hPa | 0 mm | - | - | - |
| 1778043622 | 12.22° C | 87% | 1005 hPa | 0 mm | - | - | - |
| 1778043127 | 11.67° C | 86% | 1005 hPa | 0 mm | - | - | - |
| 1778042887 | 11.11° C | 88% | 1005 hPa | 0 mm | - | - | - |
* Rain latest hour (hover to see other rain measurements)
** Current wind speed in m/s (hover to see current wind gust speed)